sensor_id;sensor_type;location;lat;lon;timestamp;P1;durP1;ratioP1;P2;durP2;ratioP2
28353;SDS011;15603;50.878;8.036;2023-11-21T00:00:14;15.07;;;4.75;;
28353;SDS011;15603;50.878;8.036;2023-11-21T00:02:42;8.05;;;3.28;;
28353;SDS011;15603;50.878;8.036;2023-11-21T00:05:11;7.15;;;2.75;;
28353;SDS011;15603;50.878;8.036;2023-11-21T00:07:41;7.03;;;2.70;;
28353;SDS011;15603;50.878;8.036;2023-11-21T00:10:09;11.60;;;2.72;;
28353;SDS011;15603;50.878;8.036;2023-11-21T00:12:38;7.80;;;3.10;;
28353;SDS011;15603;50.878;8.036;2023-11-21T00:15:05;9.23;;;2.95;;
28353;SDS011;15603;50.878;8.036;2023-11-21T00:17:36;8.32;;;2.70;;
28353;SDS011;15603;50.878;8.036;2023-11-21T00:20:07;4.75;;;2.40;;
28353;SDS011;15603;50.878;8.036;2023-11-21T00:22:35;15.60;;;2.40;;
28353;SDS011;15603;50.878;8.036;2023-11-21T00:25:03;12.55;;;2.60;;
28353;SDS011;15603;50.878;8.036;2023-11-21T00:27:30;6.43;;;3.10;;
28353;SDS011;15603;50.878;8.036;2023-11-21T00:29:58;7.97;;;3.72;;
28353;SDS011;15603;50.878;8.036;2023-11-21T00:32:25;5.93;;;2.95;;
28353;SDS011;15603;50.878;8.036;2023-11-21T00:34:52;10.95;;;3.50;;
28353;SDS011;15603;50.878;8.036;2023-11-21T00:37:19;12.38;;;3.67;;
28353;SDS011;15603;50.878;8.036;2023-11-21T00:39:47;7.50;;;3.08;;
28353;SDS011;15603;50.878;8.036;2023-11-21T00:42:14;7.10;;;3.42;;
28353;SDS011;15603;50.878;8.036;2023-11-21T00:44:41;16.77;;;3.70;;
28353;SDS011;15603;50.878;8.036;2023-11-21T00:47:08;9.07;;;4.20;;
28353;SDS011;15603;50.878;8.036;2023-11-21T00:49:35;17.35;;;7.32;;
28353;SDS011;15603;50.878;8.036;2023-11-21T00:52:03;11.35;;;5.80;;
28353;SDS011;15603;50.878;8.036;2023-11-21T00:54:31;11.88;;;5.57;;
28353;SDS011;15603;50.878;8.036;2023-11-21T00:57:01;16.13;;;6.43;;
28353;SDS011;15603;50.878;8.036;2023-11-21T00:59:28;16.38;;;6.55;;
28353;SDS011;15603;50.878;8.036;2023-11-21T01:01:55;11.77;;;5.60;;
28353;SDS011;15603;50.878;8.036;2023-11-21T01:04:22;17.77;;;6.55;;
28353;SDS011;15603;50.878;8.036;2023-11-21T01:06:49;15.10;;;6.15;;
28353;SDS011;15603;50.878;8.036;2023-11-21T01:09:16;12.35;;;4.88;;
28353;SDS011;15603;50.878;8.036;2023-11-21T01:11:45;10.82;;;4.72;;
28353;SDS011;15603;50.878;8.036;2023-11-21T01:14:13;9.70;;;4.38;;
28353;SDS011;15603;50.878;8.036;2023-11-21T01:16:40;8.35;;;3.78;;
28353;SDS011;15603;50.878;8.036;2023-11-21T01:19:08;6.80;;;3.60;;
28353;SDS011;15603;50.878;8.036;2023-11-21T01:21:36;10.20;;;3.17;;
28353;SDS011;15603;50.878;8.036;2023-11-21T01:24:03;7.80;;;3.80;;
28353;SDS011;15603;50.878;8.036;2023-11-21T01:26:34;6.13;;;3.35;;
28353;SDS011;15603;50.878;8.036;2023-11-21T01:29:01;6.70;;;2.83;;
28353;SDS011;15603;50.878;8.036;2023-11-21T01:31:28;8.10;;;3.10;;
28353;SDS011;15603;50.878;8.036;2023-11-21T01:33:56;6.97;;;3.05;;
28353;SDS011;15603;50.878;8.036;2023-11-21T01:36:29;8.57;;;2.80;;
28353;SDS011;15603;50.878;8.036;2023-11-21T01:38:59;9.45;;;2.53;;
28353;SDS011;15603;50.878;8.036;2023-11-21T01:41:26;7.63;;;3.53;;
28353;SDS011;15603;50.878;8.036;2023-11-21T01:43:55;6.53;;;3.10;;
28353;SDS011;15603;50.878;8.036;2023-11-21T01:46:24;7.90;;;2.72;;
28353;SDS011;15603;50.878;8.036;2023-11-21T01:48:51;5.03;;;3.10;;
28353;SDS011;15603;50.878;8.036;2023-11-21T01:51:20;9.52;;;4.43;;
28353;SDS011;15603;50.878;8.036;2023-11-21T01:53:47;6.03;;;3.42;;
28353;SDS011;15603;50.878;8.036;2023-11-21T01:56:15;5.63;;;3.15;;
28353;SDS011;15603;50.878;8.036;2023-11-21T01:58:43;9.18;;;3.40;;
28353;SDS011;15603;50.878;8.036;2023-11-21T02:01:11;5.63;;;3.13;;
28353;SDS011;15603;50.878;8.036;2023-11-21T02:03:38;11.77;;;3.63;;
28353;SDS011;15603;50.878;8.036;2023-11-21T02:06:07;11.35;;;2.97;;
28353;SDS011;15603;50.878;8.036;2023-11-21T02:08:35;10.75;;;2.95;;
28353;SDS011;15603;50.878;8.036;2023-11-21T02:11:04;9.32;;;2.85;;
28353;SDS011;15603;50.878;8.036;2023-11-21T02:13:32;6.80;;;3.10;;
28353;SDS011;15603;50.878;8.036;2023-11-21T02:16:01;8.55;;;4.68;;
28353;SDS011;15603;50.878;8.036;2023-11-21T02:18:29;11.45;;;4.13;;
28353;SDS011;15603;50.878;8.036;2023-11-21T02:20:56;9.00;;;4.20;;
28353;SDS011;15603;50.878;8.036;2023-11-21T02:23:23;5.38;;;3.00;;
28353;SDS011;15603;50.878;8.036;2023-11-21T02:25:55;6.75;;;3.33;;
28353;SDS011;15603;50.878;8.036;2023-11-21T02:28:23;10.48;;;3.92;;
28353;SDS011;15603;50.878;8.036;2023-11-21T02:30:53;7.97;;;3.80;;
28353;SDS011;15603;50.878;8.036;2023-11-21T02:33:24;11.10;;;3.03;;
28353;SDS011;15603;50.878;8.036;2023-11-21T02:35:52;8.80;;;3.28;;
28353;SDS011;15603;50.878;8.036;2023-11-21T02:38:21;14.07;;;3.22;;
28353;SDS011;15603;50.878;8.036;2023-11-21T02:40:50;6.25;;;3.53;;
28353;SDS011;15603;50.878;8.036;2023-11-21T02:43:17;7.30;;;3.47;;
28353;SDS011;15603;50.878;8.036;2023-11-21T02:45:44;8.73;;;3.20;;
28353;SDS011;15603;50.878;8.036;2023-11-21T02:48:12;11.82;;;3.80;;
28353;SDS011;15603;50.878;8.036;2023-11-21T02:50:39;15.25;;;3.92;;
28353;SDS011;15603;50.878;8.036;2023-11-21T02:53:07;5.93;;;3.22;;
28353;SDS011;15603;50.878;8.036;2023-11-21T02:55:34;8.52;;;3.05;;
28353;SDS011;15603;50.878;8.036;2023-11-21T02:58:02;11.70;;;3.60;;
28353;SDS011;15603;50.878;8.036;2023-11-21T03:00:30;6.40;;;3.03;;
28353;SDS011;15603;50.878;8.036;2023-11-21T03:02:57;5.28;;;3.08;;
28353;SDS011;15603;50.878;8.036;2023-11-21T03:05:25;7.45;;;2.80;;
28353;SDS011;15603;50.878;8.036;2023-11-21T03:07:52;9.13;;;3.22;;
28353;SDS011;15603;50.878;8.036;2023-11-21T03:10:20;6.95;;;3.17;;
28353;SDS011;15603;50.878;8.036;2023-11-21T03:12:47;10.20;;;4.18;;
28353;SDS011;15603;50.878;8.036;2023-11-21T03:15:14;12.63;;;4.55;;
28353;SDS011;15603;50.878;8.036;2023-11-21T03:17:42;12.57;;;6.13;;
28353;SDS011;15603;50.878;8.036;2023-11-21T03:20:10;14.25;;;6.88;;
28353;SDS011;15603;50.878;8.036;2023-11-21T03:22:38;12.10;;;6.72;;
28353;SDS011;15603;50.878;8.036;2023-11-21T03:25:06;20.10;;;6.35;;
28353;SDS011;15603;50.878;8.036;2023-11-21T03:27:37;8.95;;;4.25;;
28353;SDS011;15603;50.878;8.036;2023-11-21T03:30:07;6.22;;;3.10;;
28353;SDS011;15603;50.878;8.036;2023-11-21T03:32:35;12.90;;;3.13;;
28353;SDS011;15603;50.878;8.036;2023-11-21T03:35:03;7.00;;;2.83;;
28353;SDS011;15603;50.878;8.036;2023-11-21T03:37:30;7.32;;;2.90;;
28353;SDS011;15603;50.878;8.036;2023-11-21T03:39:57;4.10;;;2.60;;
28353;SDS011;15603;50.878;8.036;2023-11-21T03:42:25;12.18;;;3.80;;
28353;SDS011;15603;50.878;8.036;2023-11-21T03:44:55;11.80;;;5.65;;
28353;SDS011;15603;50.878;8.036;2023-11-21T03:47:22;14.13;;;6.30;;
28353;SDS011;15603;50.878;8.036;2023-11-21T03:49:49;12.70;;;6.70;;
28353;SDS011;15603;50.878;8.036;2023-11-21T03:52:16;14.63;;;6.88;;
28353;SDS011;15603;50.878;8.036;2023-11-21T03:54:45;19.13;;;7.15;;
28353;SDS011;15603;50.878;8.036;2023-11-21T03:57:12;13.82;;;6.80;;
28353;SDS011;15603;50.878;8.036;2023-11-21T03:59:39;17.52;;;6.75;;
28353;SDS011;15603;50.878;8.036;2023-11-21T04:02:08;21.00;;;7.95;;
28353;SDS011;15603;50.878;8.036;2023-11-21T04:04:35;21.27;;;7.60;;
28353;SDS011;15603;50.878;8.036;2023-11-21T04:07:03;13.30;;;6.95;;
28353;SDS011;15603;50.878;8.036;2023-11-21T04:09:31;14.73;;;7.68;;
28353;SDS011;15603;50.878;8.036;2023-11-21T04:11:58;16.83;;;7.60;;
28353;SDS011;15603;50.878;8.036;2023-11-21T04:14:25;24.42;;;7.90;;
28353;SDS011;15603;50.878;8.036;2023-11-21T04:16:54;17.80;;;7.55;;
28353;SDS011;15603;50.878;8.036;2023-11-21T04:19:21;11.48;;;6.47;;
28353;SDS011;15603;50.878;8.036;2023-11-21T04:21:48;19.58;;;8.23;;
28353;SDS011;15603;50.878;8.036;2023-11-21T04:24:16;13.70;;;7.00;;
28353;SDS011;15603;50.878;8.036;2023-11-21T04:26:43;15.55;;;7.53;;
28353;SDS011;15603;50.878;8.036;2023-11-21T04:29:11;19.40;;;7.47;;
28353;SDS011;15603;50.878;8.036;2023-11-21T04:31:38;15.63;;;6.88;;
28353;SDS011;15603;50.878;8.036;2023-11-21T04:34:05;13.77;;;7.30;;
28353;SDS011;15603;50.878;8.036;2023-11-21T04:36:32;16.70;;;7.13;;
28353;SDS011;15603;50.878;8.036;2023-11-21T04:38:59;21.88;;;6.85;;
28353;SDS011;15603;50.878;8.036;2023-11-21T04:41:26;17.00;;;7.68;;
28353;SDS011;15603;50.878;8.036;2023-11-21T04:43:53;17.25;;;6.45;;
28353;SDS011;15603;50.878;8.036;2023-11-21T04:46:21;15.90;;;7.03;;
28353;SDS011;15603;50.878;8.036;2023-11-21T04:48:48;14.95;;;7.20;;
28353;SDS011;15603;50.878;8.036;2023-11-21T04:51:16;14.45;;;7.50;;
28353;SDS011;15603;50.878;8.036;2023-11-21T04:53:43;22.10;;;7.18;;
28353;SDS011;15603;50.878;8.036;2023-11-21T04:56:10;19.10;;;6.75;;
28353;SDS011;15603;50.878;8.036;2023-11-21T04:58:37;17.15;;;8.15;;
28353;SDS011;15603;50.878;8.036;2023-11-21T05:01:09;24.40;;;8.38;;
28353;SDS011;15603;50.878;8.036;2023-11-21T05:03:36;14.43;;;7.70;;
28353;SDS011;15603;50.878;8.036;2023-11-21T05:06:05;15.35;;;7.72;;
28353;SDS011;15603;50.878;8.036;2023-11-21T05:08:33;14.90;;;7.28;;
28353;SDS011;15603;50.878;8.036;2023-11-21T05:11:00;16.73;;;7.45;;
28353;SDS011;15603;50.878;8.036;2023-11-21T05:13:27;16.08;;;7.15;;
28353;SDS011;15603;50.878;8.036;2023-11-21T05:15:55;13.25;;;6.53;;
28353;SDS011;15603;50.878;8.036;2023-11-21T05:18:25;21.73;;;8.60;;
28353;SDS011;15603;50.878;8.036;2023-11-21T05:20:56;10.98;;;6.40;;
28353;SDS011;15603;50.878;8.036;2023-11-21T05:23:25;17.10;;;7.32;;
28353;SDS011;15603;50.878;8.036;2023-11-21T05:25:52;15.68;;;7.80;;
28353;SDS011;15603;50.878;8.036;2023-11-21T05:28:19;24.23;;;8.20;;
28353;SDS011;15603;50.878;8.036;2023-11-21T05:30:47;19.10;;;7.28;;
28353;SDS011;15603;50.878;8.036;2023-11-21T05:33:14;16.95;;;7.25;;
28353;SDS011;15603;50.878;8.036;2023-11-21T05:35:41;17.00;;;7.40;;
28353;SDS011;15603;50.878;8.036;2023-11-21T05:38:08;19.42;;;7.97;;
28353;SDS011;15603;50.878;8.036;2023-11-21T05:40:35;17.67;;;7.50;;
28353;SDS011;15603;50.878;8.036;2023-11-21T05:43:03;21.25;;;6.28;;
28353;SDS011;15603;50.878;8.036;2023-11-21T05:45:32;20.35;;;7.18;;
28353;SDS011;15603;50.878;8.036;2023-11-21T05:47:59;17.67;;;6.72;;
28353;SDS011;15603;50.878;8.036;2023-11-21T05:50:26;14.70;;;6.93;;
28353;SDS011;15603;50.878;8.036;2023-11-21T05:52:53;18.33;;;6.90;;
28353;SDS011;15603;50.878;8.036;2023-11-21T05:55:22;18.63;;;7.50;;
28353;SDS011;15603;50.878;8.036;2023-11-21T05:57:52;13.55;;;6.13;;
28353;SDS011;15603;50.878;8.036;2023-11-21T06:00:20;21.15;;;6.88;;
28353;SDS011;15603;50.878;8.036;2023-11-21T06:02:53;17.67;;;6.68;;
28353;SDS011;15603;50.878;8.036;2023-11-21T06:05:23;16.10;;;7.07;;
28353;SDS011;15603;50.878;8.036;2023-11-21T06:07:51;14.65;;;6.88;;
28353;SDS011;15603;50.878;8.036;2023-11-21T06:10:25;15.00;;;7.18;;
28353;SDS011;15603;50.878;8.036;2023-11-21T06:12:53;23.20;;;7.50;;
28353;SDS011;15603;50.878;8.036;2023-11-21T06:15:21;15.48;;;6.65;;
28353;SDS011;15603;50.878;8.036;2023-11-21T06:17:50;16.65;;;6.45;;
28353;SDS011;15603;50.878;8.036;2023-11-21T06:20:21;17.00;;;6.68;;
28353;SDS011;15603;50.878;8.036;2023-11-21T06:22:49;14.10;;;7.18;;
28353;SDS011;15603;50.878;8.036;2023-11-21T06:25:17;20.27;;;6.45;;
28353;SDS011;15603;50.878;8.036;2023-11-21T06:27:45;20.10;;;6.90;;
28353;SDS011;15603;50.878;8.036;2023-11-21T06:30:14;16.23;;;6.50;;
28353;SDS011;15603;50.878;8.036;2023-11-21T06:32:43;11.82;;;6.22;;
28353;SDS011;15603;50.878;8.036;2023-11-21T06:35:14;17.60;;;6.35;;
28353;SDS011;15603;50.878;8.036;2023-11-21T06:37:43;19.88;;;6.75;;
28353;SDS011;15603;50.878;8.036;2023-11-21T06:40:16;12.93;;;5.93;;
28353;SDS011;15603;50.878;8.036;2023-11-21T06:42:48;15.73;;;6.13;;
28353;SDS011;15603;50.878;8.036;2023-11-21T06:45:15;11.02;;;6.35;;
28353;SDS011;15603;50.878;8.036;2023-11-21T06:47:43;13.32;;;6.13;;
28353;SDS011;15603;50.878;8.036;2023-11-21T06:50:12;15.48;;;7.05;;
28353;SDS011;15603;50.878;8.036;2023-11-21T06:52:40;17.40;;;6.55;;
28353;SDS011;15603;50.878;8.036;2023-11-21T06:55:07;17.00;;;5.93;;
28353;SDS011;15603;50.878;8.036;2023-11-21T06:57:37;21.58;;;7.57;;
28353;SDS011;15603;50.878;8.036;2023-11-21T07:00:05;14.10;;;6.45;;
28353;SDS011;15603;50.878;8.036;2023-11-21T07:02:35;12.65;;;5.38;;
28353;SDS011;15603;50.878;8.036;2023-11-21T07:05:03;12.77;;;5.47;;
28353;SDS011;15603;50.878;8.036;2023-11-21T07:07:30;18.73;;;7.13;;
28353;SDS011;15603;50.878;8.036;2023-11-21T07:09:57;22.45;;;7.10;;
28353;SDS011;15603;50.878;8.036;2023-11-21T07:12:24;15.75;;;6.85;;
28353;SDS011;15603;50.878;8.036;2023-11-21T07:14:52;20.38;;;7.47;;
28353;SDS011;15603;50.878;8.036;2023-11-21T07:17:20;11.95;;;6.00;;
28353;SDS011;15603;50.878;8.036;2023-11-21T07:19:50;17.65;;;6.70;;
28353;SDS011;15603;50.878;8.036;2023-11-21T07:22:17;13.23;;;6.22;;
28353;SDS011;15603;50.878;8.036;2023-11-21T07:24:51;15.93;;;7.10;;
28353;SDS011;15603;50.878;8.036;2023-11-21T07:27:18;20.00;;;8.25;;
28353;SDS011;15603;50.878;8.036;2023-11-21T07:29:45;18.77;;;6.88;;
28353;SDS011;15603;50.878;8.036;2023-11-21T07:32:12;14.90;;;6.50;;
28353;SDS011;15603;50.878;8.036;2023-11-21T07:34:40;20.02;;;8.13;;
28353;SDS011;15603;50.878;8.036;2023-11-21T07:37:08;18.02;;;6.90;;
28353;SDS011;15603;50.878;8.036;2023-11-21T07:39:35;17.58;;;6.95;;
28353;SDS011;15603;50.878;8.036;2023-11-21T07:42:03;23.17;;;7.35;;
28353;SDS011;15603;50.878;8.036;2023-11-21T07:44:31;17.85;;;7.15;;
28353;SDS011;15603;50.878;8.036;2023-11-21T07:46:58;14.98;;;7.22;;
28353;SDS011;15603;50.878;8.036;2023-11-21T07:49:25;22.02;;;6.93;;
28353;SDS011;15603;50.878;8.036;2023-11-21T07:51:53;20.42;;;7.82;;
28353;SDS011;15603;50.878;8.036;2023-11-21T07:54:20;15.30;;;7.47;;
28353;SDS011;15603;50.878;8.036;2023-11-21T07:56:48;17.80;;;7.03;;
28353;SDS011;15603;50.878;8.036;2023-11-21T07:59:15;24.48;;;7.43;;
28353;SDS011;15603;50.878;8.036;2023-11-21T08:01:42;22.33;;;7.75;;
28353;SDS011;15603;50.878;8.036;2023-11-21T08:04:10;27.17;;;8.48;;
28353;SDS011;15603;50.878;8.036;2023-11-21T08:06:37;22.52;;;8.57;;
28353;SDS011;15603;50.878;8.036;2023-11-21T08:09:04;17.23;;;8.32;;
28353;SDS011;15603;50.878;8.036;2023-11-21T08:11:31;18.13;;;8.57;;
28353;SDS011;15603;50.878;8.036;2023-11-21T08:13:59;18.65;;;8.18;;
28353;SDS011;15603;50.878;8.036;2023-11-21T08:16:27;23.00;;;7.43;;
28353;SDS011;15603;50.878;8.036;2023-11-21T08:18:54;20.88;;;8.27;;
28353;SDS011;15603;50.878;8.036;2023-11-21T08:21:21;19.33;;;8.38;;
28353;SDS011;15603;50.878;8.036;2023-11-21T08:23:51;20.98;;;8.23;;
28353;SDS011;15603;50.878;8.036;2023-11-21T08:26:21;16.75;;;7.15;;
28353;SDS011;15603;50.878;8.036;2023-11-21T08:28:49;25.92;;;8.18;;
28353;SDS011;15603;50.878;8.036;2023-11-21T08:31:23;19.58;;;8.68;;
28353;SDS011;15603;50.878;8.036;2023-11-21T08:33:51;19.55;;;8.70;;
28353;SDS011;15603;50.878;8.036;2023-11-21T08:36:22;25.48;;;10.60;;
28353;SDS011;15603;50.878;8.036;2023-11-21T08:38:51;23.40;;;10.13;;
28353;SDS011;15603;50.878;8.036;2023-11-21T08:41:21;21.40;;;10.32;;
28353;SDS011;15603;50.878;8.036;2023-11-21T08:43:51;25.55;;;11.13;;
28353;SDS011;15603;50.878;8.036;2023-11-21T08:46:19;25.17;;;11.00;;
28353;SDS011;15603;50.878;8.036;2023-11-21T08:48:47;24.33;;;10.50;;
28353;SDS011;15603;50.878;8.036;2023-11-21T08:51:15;19.90;;;10.23;;
28353;SDS011;15603;50.878;8.036;2023-11-21T08:53:43;32.63;;;10.85;;
28353;SDS011;15603;50.878;8.036;2023-11-21T08:56:14;26.25;;;10.18;;
28353;SDS011;15603;50.878;8.036;2023-11-21T08:58:41;22.67;;;10.40;;
28353;SDS011;15603;50.878;8.036;2023-11-21T09:01:08;17.48;;;9.25;;
28353;SDS011;15603;50.878;8.036;2023-11-21T09:03:36;35.78;;;11.27;;
28353;SDS011;15603;50.878;8.036;2023-11-21T09:06:03;23.92;;;11.65;;
28353;SDS011;15603;50.878;8.036;2023-11-21T09:08:31;19.80;;;10.20;;
28353;SDS011;15603;50.878;8.036;2023-11-21T09:10:58;26.05;;;10.18;;
28353;SDS011;15603;50.878;8.036;2023-11-21T09:13:26;22.08;;;9.93;;
28353;SDS011;15603;50.878;8.036;2023-11-21T09:15:53;21.70;;;10.05;;
28353;SDS011;15603;50.878;8.036;2023-11-21T09:18:20;23.45;;;9.65;;
28353;SDS011;15603;50.878;8.036;2023-11-21T09:20:47;27.50;;;10.65;;
28353;SDS011;15603;50.878;8.036;2023-11-21T09:23:14;20.92;;;9.45;;
28353;SDS011;15603;50.878;8.036;2023-11-21T09:25:42;22.75;;;9.52;;
28353;SDS011;15603;50.878;8.036;2023-11-21T09:28:13;22.15;;;10.10;;
28353;SDS011;15603;50.878;8.036;2023-11-21T09:30:40;24.08;;;10.00;;
28353;SDS011;15603;50.878;8.036;2023-11-21T09:33:07;20.90;;;8.52;;
28353;SDS011;15603;50.878;8.036;2023-11-21T09:35:37;20.48;;;9.65;;
28353;SDS011;15603;50.878;8.036;2023-11-21T09:38:05;29.60;;;9.00;;
28353;SDS011;15603;50.878;8.036;2023-11-21T09:40:38;19.80;;;8.65;;
28353;SDS011;15603;50.878;8.036;2023-11-21T09:43:06;23.65;;;8.40;;
28353;SDS011;15603;50.878;8.036;2023-11-21T09:45:53;22.65;;;8.63;;
28353;SDS011;15603;50.878;8.036;2023-11-21T09:48:24;18.10;;;7.43;;
28353;SDS011;15603;50.878;8.036;2023-11-21T09:50:51;27.70;;;8.02;;
28353;SDS011;15603;50.878;8.036;2023-11-21T09:53:21;15.93;;;7.75;;
28353;SDS011;15603;50.878;8.036;2023-11-21T09:55:51;23.52;;;8.15;;
28353;SDS011;15603;50.878;8.036;2023-11-21T09:58:19;18.27;;;7.88;;
28353;SDS011;15603;50.878;8.036;2023-11-21T10:00:50;16.05;;;7.55;;
28353;SDS011;15603;50.878;8.036;2023-11-21T10:03:21;18.53;;;7.17;;
28353;SDS011;15603;50.878;8.036;2023-11-21T10:05:48;22.45;;;8.52;;
28353;SDS011;15603;50.878;8.036;2023-11-21T10:08:17;12.13;;;6.90;;
28353;SDS011;15603;50.878;8.036;2023-11-21T10:10:49;23.15;;;7.68;;
28353;SDS011;15603;50.878;8.036;2023-11-21T10:13:20;19.88;;;7.38;;
28353;SDS011;15603;50.878;8.036;2023-11-21T10:15:49;17.08;;;6.68;;
28353;SDS011;15603;50.878;8.036;2023-11-21T10:18:18;22.88;;;8.07;;
28353;SDS011;15603;50.878;8.036;2023-11-21T10:20:46;11.90;;;6.38;;
28353;SDS011;15603;50.878;8.036;2023-11-21T10:23:21;17.63;;;6.68;;
28353;SDS011;15603;50.878;8.036;2023-11-21T10:25:50;18.15;;;7.40;;
28353;SDS011;15603;50.878;8.036;2023-11-21T10:28:20;15.25;;;7.35;;
28353;SDS011;15603;50.878;8.036;2023-11-21T10:30:48;18.02;;;7.35;;
28353;SDS011;15603;50.878;8.036;2023-11-21T10:33:15;17.95;;;6.90;;
28353;SDS011;15603;50.878;8.036;2023-11-21T10:35:44;16.58;;;7.05;;
28353;SDS011;15603;50.878;8.036;2023-11-21T10:38:17;16.63;;;6.65;;
28353;SDS011;15603;50.878;8.036;2023-11-21T10:40:46;12.73;;;6.72;;
28353;SDS011;15603;50.878;8.036;2023-11-21T10:43:14;19.48;;;7.35;;
28353;SDS011;15603;50.878;8.036;2023-11-21T10:45:43;18.73;;;7.43;;
28353;SDS011;15603;50.878;8.036;2023-11-21T10:48:12;17.60;;;7.40;;
28353;SDS011;15603;50.878;8.036;2023-11-21T10:50:44;12.85;;;6.90;;
28353;SDS011;15603;50.878;8.036;2023-11-21T10:53:12;16.17;;;7.00;;
28353;SDS011;15603;50.878;8.036;2023-11-21T10:55:40;17.83;;;7.95;;
28353;SDS011;15603;50.878;8.036;2023-11-21T10:58:11;17.90;;;7.72;;
28353;SDS011;15603;50.878;8.036;2023-11-21T11:00:40;15.57;;;7.47;;
28353;SDS011;15603;50.878;8.036;2023-11-21T11:03:08;19.17;;;6.35;;
28353;SDS011;15603;50.878;8.036;2023-11-21T11:05:43;25.52;;;6.82;;
28353;SDS011;15603;50.878;8.036;2023-11-21T11:08:20;17.90;;;6.35;;
28353;SDS011;15603;50.878;8.036;2023-11-21T11:10:53;13.90;;;6.72;;
28353;SDS011;15603;50.878;8.036;2023-11-21T11:13:20;13.80;;;6.70;;
28353;SDS011;15603;50.878;8.036;2023-11-21T11:15:48;22.75;;;7.25;;
28353;SDS011;15603;50.878;8.036;2023-11-21T11:18:15;23.48;;;6.93;;
28353;SDS011;15603;50.878;8.036;2023-11-21T11:20:43;19.38;;;6.88;;
28353;SDS011;15603;50.878;8.036;2023-11-21T11:34:40;14.57;;;6.65;;
28353;SDS011;15603;50.878;8.036;2023-11-21T11:37:11;14.07;;;6.35;;
28353;SDS011;15603;50.878;8.036;2023-11-21T11:39:42;10.10;;;5.32;;
28353;SDS011;15603;50.878;8.036;2023-11-21T11:42:14;13.52;;;6.13;;
28353;SDS011;15603;50.878;8.036;2023-11-21T11:50:07;11.32;;;6.10;;
28353;SDS011;15603;50.878;8.036;2023-11-21T11:52:48;10.57;;;5.35;;
28353;SDS011;15603;50.878;8.036;2023-11-21T11:55:19;10.18;;;5.38;;
28353;SDS011;15603;50.878;8.036;2023-11-21T11:57:51;15.35;;;6.05;;
28353;SDS011;15603;50.878;8.036;2023-11-21T12:00:33;16.15;;;5.15;;
28353;SDS011;15603;50.878;8.036;2023-11-21T12:03:05;12.93;;;6.43;;
28353;SDS011;15603;50.878;8.036;2023-11-21T12:05:35;20.08;;;7.18;;
28353;SDS011;15603;50.878;8.036;2023-11-21T12:08:05;19.23;;;5.80;;
28353;SDS011;15603;50.878;8.036;2023-11-21T12:10:35;16.67;;;5.72;;
28353;SDS011;15603;50.878;8.036;2023-11-21T12:13:07;13.95;;;6.10;;
28353;SDS011;15603;50.878;8.036;2023-11-21T12:15:36;16.40;;;6.78;;
28353;SDS011;15603;50.878;8.036;2023-11-21T12:18:06;13.10;;;5.57;;
28353;SDS011;15603;50.878;8.036;2023-11-21T12:20:33;15.25;;;6.18;;
28353;SDS011;15603;50.878;8.036;2023-11-21T12:25:35;16.90;;;6.53;;
28353;SDS011;15603;50.878;8.036;2023-11-21T12:28:04;17.48;;;6.47;;
28353;SDS011;15603;50.878;8.036;2023-11-21T12:30:33;17.27;;;5.65;;
28353;SDS011;15603;50.878;8.036;2023-11-21T12:33:05;16.58;;;6.45;;
28353;SDS011;15603;50.878;8.036;2023-11-21T12:35:35;12.40;;;5.63;;
28353;SDS011;15603;50.878;8.036;2023-11-21T12:38:03;13.25;;;6.20;;
28353;SDS011;15603;50.878;8.036;2023-11-21T12:40:31;18.48;;;5.57;;
28353;SDS011;15603;50.878;8.036;2023-11-21T12:42:59;12.95;;;5.35;;
28353;SDS011;15603;50.878;8.036;2023-11-21T12:45:28;15.32;;;5.95;;
28353;SDS011;15603;50.878;8.036;2023-11-21T12:48:01;21.27;;;5.78;;
28353;SDS011;15603;50.878;8.036;2023-11-21T12:50:35;18.60;;;5.10;;
28353;SDS011;15603;50.878;8.036;2023-11-21T12:53:04;15.88;;;6.32;;
28353;SDS011;15603;50.878;8.036;2023-11-21T12:55:35;12.23;;;4.85;;
28353;SDS011;15603;50.878;8.036;2023-11-21T12:58:07;17.35;;;5.60;;
28353;SDS011;15603;50.878;8.036;2023-11-21T13:00:47;12.75;;;4.68;;
28353;SDS011;15603;50.878;8.036;2023-11-21T13:03:16;16.98;;;5.05;;
28353;SDS011;15603;50.878;8.036;2023-11-21T13:05:47;13.15;;;4.95;;
28353;SDS011;15603;50.878;8.036;2023-11-21T13:08:21;17.15;;;5.38;;
28353;SDS011;15603;50.878;8.036;2023-11-21T13:10:52;12.35;;;4.57;;
28353;SDS011;15603;50.878;8.036;2023-11-21T13:13:22;13.70;;;4.88;;
28353;SDS011;15603;50.878;8.036;2023-11-21T13:15:55;13.50;;;4.35;;
28353;SDS011;15603;50.878;8.036;2023-11-21T13:18:24;11.55;;;4.00;;
28353;SDS011;15603;50.878;8.036;2023-11-21T13:20:53;15.60;;;4.07;;
28353;SDS011;15603;50.878;8.036;2023-11-21T13:23:22;12.35;;;5.03;;
28353;SDS011;15603;50.878;8.036;2023-11-21T13:25:50;13.95;;;4.78;;
28353;SDS011;15603;50.878;8.036;2023-11-21T13:28:28;13.70;;;5.05;;
28353;SDS011;15603;50.878;8.036;2023-11-21T13:31:00;12.00;;;4.63;;
28353;SDS011;15603;50.878;8.036;2023-11-21T13:33:29;23.00;;;4.90;;
28353;SDS011;15603;50.878;8.036;2023-11-21T13:35:57;13.52;;;4.68;;
28353;SDS011;15603;50.878;8.036;2023-11-21T13:38:24;14.05;;;5.43;;
28353;SDS011;15603;50.878;8.036;2023-11-21T13:40:52;12.05;;;4.60;;
28353;SDS011;15603;50.878;8.036;2023-11-21T13:43:21;14.80;;;4.93;;
28353;SDS011;15603;50.878;8.036;2023-11-21T13:45:52;12.87;;;4.60;;
28353;SDS011;15603;50.878;8.036;2023-11-21T13:48:49;19.08;;;3.53;;
28353;SDS011;15603;50.878;8.036;2023-11-21T13:51:24;13.20;;;3.70;;
28353;SDS011;15603;50.878;8.036;2023-11-21T13:54:12;11.82;;;3.97;;
28353;SDS011;15603;50.878;8.036;2023-11-21T13:56:39;5.78;;;3.25;;
28353;SDS011;15603;50.878;8.036;2023-11-21T13:59:08;14.90;;;3.95;;
28353;SDS011;15603;50.878;8.036;2023-11-21T14:01:49;11.00;;;4.00;;
28353;SDS011;15603;50.878;8.036;2023-11-21T14:04:21;8.30;;;3.20;;
28353;SDS011;15603;50.878;8.036;2023-11-21T14:07:08;8.02;;;2.90;;
28353;SDS011;15603;50.878;8.036;2023-11-21T14:09:54;7.50;;;2.63;;
28353;SDS011;15603;50.878;8.036;2023-11-21T14:12:21;7.03;;;2.97;;
28353;SDS011;15603;50.878;8.036;2023-11-21T14:14:49;10.98;;;3.83;;
28353;SDS011;15603;50.878;8.036;2023-11-21T14:17:16;14.30;;;3.53;;
28353;SDS011;15603;50.878;8.036;2023-11-21T14:19:43;9.25;;;3.53;;
28353;SDS011;15603;50.878;8.036;2023-11-21T14:22:11;7.60;;;2.85;;
28353;SDS011;15603;50.878;8.036;2023-11-21T14:24:38;13.10;;;2.97;;
28353;SDS011;15603;50.878;8.036;2023-11-21T14:27:10;12.05;;;3.20;;
28353;SDS011;15603;50.878;8.036;2023-11-21T14:29:38;11.90;;;3.10;;
28353;SDS011;15603;50.878;8.036;2023-11-21T14:32:09;7.82;;;2.60;;
28353;SDS011;15603;50.878;8.036;2023-11-21T14:34:37;7.65;;;3.42;;
28353;SDS011;15603;50.878;8.036;2023-11-21T14:37:05;8.13;;;2.97;;
28353;SDS011;15603;50.878;8.036;2023-11-21T14:39:32;13.05;;;3.78;;
28353;SDS011;15603;50.878;8.036;2023-11-21T14:44:34;6.65;;;2.75;;
28353;SDS011;15603;50.878;8.036;2023-11-21T14:47:05;6.90;;;3.33;;
28353;SDS011;15603;50.878;8.036;2023-11-21T14:49:40;6.60;;;2.70;;
28353;SDS011;15603;50.878;8.036;2023-11-21T14:52:21;5.72;;;2.60;;
28353;SDS011;15603;50.878;8.036;2023-11-21T14:55:03;9.20;;;2.72;;
28353;SDS011;15603;50.878;8.036;2023-11-21T14:57:49;7.28;;;3.25;;
28353;SDS011;15603;50.878;8.036;2023-11-21T15:00:17;10.98;;;3.10;;
28353;SDS011;15603;50.878;8.036;2023-11-21T15:03:03;10.43;;;2.55;;
28353;SDS011;15603;50.878;8.036;2023-11-21T15:05:32;9.70;;;2.88;;
28353;SDS011;15603;50.878;8.036;2023-11-21T15:08:01;8.65;;;3.03;;